sensor_id;sensor_type;location;lat;lon;timestamp;temperature;humidity
6462;DHT22;3264;42.862;25.098;2023-07-28T00:01:11;12.80;99.90
6462;DHT22;3264;42.862;25.098;2023-07-28T00:03:44;12.80;99.90
6462;DHT22;3264;42.862;25.098;2023-07-28T00:06:11;12.80;99.90
6462;DHT22;3264;42.862;25.098;2023-07-28T00:08:41;12.80;99.90
6462;DHT22;3264;42.862;25.098;2023-07-28T00:11:11;12.70;99.90
6462;DHT22;3264;42.862;25.098;2023-07-28T00:13:48;12.70;99.90
6462;DHT22;3264;42.862;25.098;2023-07-28T00:16:20;12.70;99.90
6462;DHT22;3264;42.862;25.098;2023-07-28T00:18:52;12.70;99.90
6462;DHT22;3264;42.862;25.098;2023-07-28T00:21:25;12.70;99.90
6462;DHT22;3264;42.862;25.098;2023-07-28T00:23:53;12.70;99.90
6462;DHT22;3264;42.862;25.098;2023-07-28T00:26:21;12.70;99.90
6462;DHT22;3264;42.862;25.098;2023-07-28T00:28:53;12.70;99.90
6462;DHT22;3264;42.862;25.098;2023-07-28T00:31:22;12.60;99.90
6462;DHT22;3264;42.862;25.098;2023-07-28T00:33:52;12.60;99.90
6462;DHT22;3264;42.862;25.098;2023-07-28T00:36:26;12.50;99.90
6462;DHT22;3264;42.862;25.098;2023-07-28T00:38:57;12.50;99.90
6462;DHT22;3264;42.862;25.098;2023-07-28T00:41:25;12.50;99.90
6462;DHT22;3264;42.862;25.098;2023-07-28T00:43:58;12.40;99.90
6462;DHT22;3264;42.862;25.098;2023-07-28T00:46:30;12.50;99.90
6462;DHT22;3264;42.862;25.098;2023-07-28T00:49:00;12.40;99.90
6462;DHT22;3264;42.862;25.098;2023-07-28T00:51:30;12.40;99.90
6462;DHT22;3264;42.862;25.098;2023-07-28T00:54:07;12.30;99.90
6462;DHT22;3264;42.862;25.098;2023-07-28T00:56:35;12.30;99.90
6462;DHT22;3264;42.862;25.098;2023-07-28T00:59:06;12.30;99.90
6462;DHT22;3264;42.862;25.098;2023-07-28T01:01:34;12.20;99.90
6462;DHT22;3264;42.862;25.098;2023-07-28T01:04:07;12.20;99.90
6462;DHT22;3264;42.862;25.098;2023-07-28T01:06:47;12.30;99.90
6462;DHT22;3264;42.862;25.098;2023-07-28T01:09:20;12.20;99.90
6462;DHT22;3264;42.862;25.098;2023-07-28T01:11:55;12.10;99.90
6462;DHT22;3264;42.862;25.098;2023-07-28T01:14:24;12.10;99.90
6462;DHT22;3264;42.862;25.098;2023-07-28T01:16:54;12.00;99.90
6462;DHT22;3264;42.862;25.098;2023-07-28T01:19:24;12.00;99.90
6462;DHT22;3264;42.862;25.098;2023-07-28T01:21:57;12.10;99.90
6462;DHT22;3264;42.862;25.098;2023-07-28T01:24:40;12.00;99.90
6462;DHT22;3264;42.862;25.098;2023-07-28T01:27:12;12.00;99.90
6462;DHT22;3264;42.862;25.098;2023-07-28T01:29:45;12.00;99.90
6462;DHT22;3264;42.862;25.098;2023-07-28T01:32:22;11.90;99.90
6462;DHT22;3264;42.862;25.098;2023-07-28T01:34:50;11.90;99.90
6462;DHT22;3264;42.862;25.098;2023-07-28T01:37:22;11.90;99.90
6462;DHT22;3264;42.862;25.098;2023-07-28T01:39:53;11.90;99.90
6462;DHT22;3264;42.862;25.098;2023-07-28T01:42:25;11.90;99.90
6462;DHT22;3264;42.862;25.098;2023-07-28T01:44:55;11.80;99.90
6462;DHT22;3264;42.862;25.098;2023-07-28T01:47:25;11.70;99.90
6462;DHT22;3264;42.862;25.098;2023-07-28T01:49:59;11.70;99.90
6462;DHT22;3264;42.862;25.098;2023-07-28T01:52:27;11.70;99.90
6462;DHT22;3264;42.862;25.098;2023-07-28T01:54:57;11.60;99.90
6462;DHT22;3264;42.862;25.098;2023-07-28T01:57:32;11.60;99.90
6462;DHT22;3264;42.862;25.098;2023-07-28T01:59:59;11.70;99.90
6462;DHT22;3264;42.862;25.098;2023-07-28T02:02:29;11.70;99.90
6462;DHT22;3264;42.862;25.098;2023-07-28T02:05:03;11.80;99.90
6462;DHT22;3264;42.862;25.098;2023-07-28T02:07:36;11.80;99.90
6462;DHT22;3264;42.862;25.098;2023-07-28T02:10:07;11.70;99.90
6462;DHT22;3264;42.862;25.098;2023-07-28T02:12:44;11.70;99.90
6462;DHT22;3264;42.862;25.098;2023-07-28T02:15:13;11.60;99.90
6462;DHT22;3264;42.862;25.098;2023-07-28T02:17:45;11.60;99.90
6462;DHT22;3264;42.862;25.098;2023-07-28T02:20:13;11.60;99.90
6462;DHT22;3264;42.862;25.098;2023-07-28T02:22:42;11.60;99.90
6462;DHT22;3264;42.862;25.098;2023-07-28T02:25:10;11.50;99.90
6462;DHT22;3264;42.862;25.098;2023-07-28T02:27:47;11.50;99.90
6462;DHT22;3264;42.862;25.098;2023-07-28T02:30:18;11.50;99.90
6462;DHT22;3264;42.862;25.098;2023-07-28T02:32:47;11.50;99.90
6462;DHT22;3264;42.862;25.098;2023-07-28T02:35:14;11.40;99.90
6462;DHT22;3264;42.862;25.098;2023-07-28T02:37:58;11.40;99.90
6462;DHT22;3264;42.862;25.098;2023-07-28T02:40:31;11.40;99.90
6462;DHT22;3264;42.862;25.098;2023-07-28T02:43:10;11.40;99.90
6462;DHT22;3264;42.862;25.098;2023-07-28T02:45:37;11.40;99.90
6462;DHT22;3264;42.862;25.098;2023-07-28T02:48:05;11.40;99.90
6462;DHT22;3264;42.862;25.098;2023-07-28T02:50:33;11.30;99.90
6462;DHT22;3264;42.862;25.098;2023-07-28T02:53:02;11.30;99.90
6462;DHT22;3264;42.862;25.098;2023-07-28T02:55:41;11.30;99.90
6462;DHT22;3264;42.862;25.098;2023-07-28T02:58:10;11.30;99.90
6462;DHT22;3264;42.862;25.098;2023-07-28T03:00:40;11.30;99.90
6462;DHT22;3264;42.862;25.098;2023-07-28T03:03:09;11.20;99.90
6462;DHT22;3264;42.862;25.098;2023-07-28T03:05:40;11.20;99.90
6462;DHT22;3264;42.862;25.098;2023-07-28T03:08:10;11.20;99.90
6462;DHT22;3264;42.862;25.098;2023-07-28T03:10:38;11.20;99.90
6462;DHT22;3264;42.862;25.098;2023-07-28T03:13:06;11.20;99.90
6462;DHT22;3264;42.862;25.098;2023-07-28T03:15:40;11.20;99.90
6462;DHT22;3264;42.862;25.098;2023-07-28T03:18:12;11.20;99.90
6462;DHT22;3264;42.862;25.098;2023-07-28T03:20:40;11.20;99.90
6462;DHT22;3264;42.862;25.098;2023-07-28T03:23:08;11.20;99.90
6462;DHT22;3264;42.862;25.098;2023-07-28T03:25:38;11.20;99.90
6462;DHT22;3264;42.862;25.098;2023-07-28T03:28:06;11.20;99.90
6462;DHT22;3264;42.862;25.098;2023-07-28T03:30:39;11.20;99.90
6462;DHT22;3264;42.862;25.098;2023-07-28T03:33:07;11.20;99.90
6462;DHT22;3264;42.862;25.098;2023-07-28T03:35:34;11.20;99.90
6462;DHT22;3264;42.862;25.098;2023-07-28T03:38:03;11.30;99.90
6462;DHT22;3264;42.862;25.098;2023-07-28T03:40:37;11.20;99.90
6462;DHT22;3264;42.862;25.098;2023-07-28T03:43:04;11.20;99.90
6462;DHT22;3264;42.862;25.098;2023-07-28T03:45:38;11.30;99.90
6462;DHT22;3264;42.862;25.098;2023-07-28T03:48:07;11.30;99.90
6462;DHT22;3264;42.862;25.098;2023-07-28T03:50:35;11.30;99.90
6462;DHT22;3264;42.862;25.098;2023-07-28T03:53:02;11.30;99.90
6462;DHT22;3264;42.862;25.098;2023-07-28T03:55:35;11.30;99.90
6462;DHT22;3264;42.862;25.098;2023-07-28T03:58:03;11.40;99.90
6462;DHT22;3264;42.862;25.098;2023-07-28T04:00:34;11.40;99.90
6462;DHT22;3264;42.862;25.098;2023-07-28T04:03:21;11.40;99.90
6462;DHT22;3264;42.862;25.098;2023-07-28T04:05:50;11.40;99.90
6462;DHT22;3264;42.862;25.098;2023-07-28T04:08:18;11.40;99.90
6462;DHT22;3264;42.862;25.098;2023-07-28T04:10:46;11.40;99.90
6462;DHT22;3264;42.862;25.098;2023-07-28T04:13:17;11.50;99.90
6462;DHT22;3264;42.862;25.098;2023-07-28T04:16:17;11.50;99.90
6462;DHT22;3264;42.862;25.098;2023-07-28T04:19:45;11.60;99.90
6462;DHT22;3264;42.862;25.098;2023-07-28T04:22:14;11.60;99.90
6462;DHT22;3264;42.862;25.098;2023-07-28T04:24:52;11.70;99.90
6462;DHT22;3264;42.862;25.098;2023-07-28T04:27:21;11.70;99.90
6462;DHT22;3264;42.862;25.098;2023-07-28T04:29:48;11.80;99.90
6462;DHT22;3264;42.862;25.098;2023-07-28T04:32:16;11.80;99.90
6462;DHT22;3264;42.862;25.098;2023-07-28T04:34:45;11.90;99.90
6462;DHT22;3264;42.862;25.098;2023-07-28T04:37:13;11.90;99.90
6462;DHT22;3264;42.862;25.098;2023-07-28T04:39:48;12.00;99.90
6462;DHT22;3264;42.862;25.098;2023-07-28T04:42:20;12.10;99.90
6462;DHT22;3264;42.862;25.098;2023-07-28T04:44:52;12.20;99.90
6462;DHT22;3264;42.862;25.098;2023-07-28T04:47:21;12.30;99.90
6462;DHT22;3264;42.862;25.098;2023-07-28T04:49:51;12.40;99.90
6462;DHT22;3264;42.862;25.098;2023-07-28T04:52:19;12.50;99.90
6462;DHT22;3264;42.862;25.098;2023-07-28T04:54:46;12.60;99.90
6462;DHT22;3264;42.862;25.098;2023-07-28T04:57:16;12.80;99.90
6462;DHT22;3264;42.862;25.098;2023-07-28T04:59:45;13.10;99.90
6462;DHT22;3264;42.862;25.098;2023-07-28T05:02:18;13.20;99.90
6462;DHT22;3264;42.862;25.098;2023-07-28T05:04:52;13.50;99.90
6462;DHT22;3264;42.862;25.098;2023-07-28T05:07:20;13.70;99.90
6462;DHT22;3264;42.862;25.098;2023-07-28T05:09:48;13.70;99.90
6462;DHT22;3264;42.862;25.098;2023-07-28T05:12:15;13.90;99.90
6462;DHT22;3264;42.862;25.098;2023-07-28T05:14:45;14.10;99.90
6462;DHT22;3264;42.862;25.098;2023-07-28T05:17:19;14.20;99.90
6462;DHT22;3264;42.862;25.098;2023-07-28T05:19:50;14.40;99.90
6462;DHT22;3264;42.862;25.098;2023-07-28T05:22:18;14.60;99.90
6462;DHT22;3264;42.862;25.098;2023-07-28T05:24:47;14.70;99.90
6462;DHT22;3264;42.862;25.098;2023-07-28T05:27:15;14.90;99.90
6462;DHT22;3264;42.862;25.098;2023-07-28T05:29:52;15.10;99.90
6462;DHT22;3264;42.862;25.098;2023-07-28T05:32:28;15.30;99.90
6462;DHT22;3264;42.862;25.098;2023-07-28T05:35:00;15.40;99.90
6462;DHT22;3264;42.862;25.098;2023-07-28T05:37:28;15.80;99.90
6462;DHT22;3264;42.862;25.098;2023-07-28T05:39:56;15.70;99.90
6462;DHT22;3264;42.862;25.098;2023-07-28T05:42:26;15.70;99.90
6462;DHT22;3264;42.862;25.098;2023-07-28T05:44:55;16.20;99.90
6462;DHT22;3264;42.862;25.098;2023-07-28T05:47:23;16.60;99.90
6462;DHT22;3264;42.862;25.098;2023-07-28T05:49:53;16.90;99.90
6462;DHT22;3264;42.862;25.098;2023-07-28T05:52:25;16.90;99.90
6462;DHT22;3264;42.862;25.098;2023-07-28T05:54:53;17.50;99.90
6462;DHT22;3264;42.862;25.098;2023-07-28T05:57:25;17.90;99.90
6462;DHT22;3264;42.862;25.098;2023-07-28T05:59:55;18.20;99.90
6462;DHT22;3264;42.862;25.098;2023-07-28T06:02:23;18.50;99.90
6462;DHT22;3264;42.862;25.098;2023-07-28T06:05:00;18.70;99.90
6462;DHT22;3264;42.862;25.098;2023-07-28T06:07:29;19.00;99.90
6462;DHT22;3264;42.862;25.098;2023-07-28T06:09:57;19.30;97.70
6462;DHT22;3264;42.862;25.098;2023-07-28T06:12:26;19.30;98.20
6462;DHT22;3264;42.862;25.098;2023-07-28T06:14:56;19.00;97.20
6462;DHT22;3264;42.862;25.098;2023-07-28T06:17:26;19.50;97.80
6462;DHT22;3264;42.862;25.098;2023-07-28T06:19:54;19.90;97.50
6462;DHT22;3264;42.862;25.098;2023-07-28T06:22:56;20.00;96.60
6462;DHT22;3264;42.862;25.098;2023-07-28T06:25:23;20.40;96.90
6462;DHT22;3264;42.862;25.098;2023-07-28T06:27:51;20.60;96.50
6462;DHT22;3264;42.862;25.098;2023-07-28T06:30:19;21.00;97.90
6462;DHT22;3264;42.862;25.098;2023-07-28T06:32:48;20.80;96.80
6462;DHT22;3264;42.862;25.098;2023-07-28T06:35:16;21.10;97.70
6462;DHT22;3264;42.862;25.098;2023-07-28T06:37:50;21.40;98.20
6462;DHT22;3264;42.862;25.098;2023-07-28T06:40:17;21.70;95.70
6462;DHT22;3264;42.862;25.098;2023-07-28T06:42:46;22.00;96.10
6462;DHT22;3264;42.862;25.098;2023-07-28T06:45:22;22.00;94.60
6462;DHT22;3264;42.862;25.098;2023-07-28T06:47:50;21.80;92.30
6462;DHT22;3264;42.862;25.098;2023-07-28T06:50:18;22.20;94.70
6462;DHT22;3264;42.862;25.098;2023-07-28T06:52:48;22.30;94.20
6462;DHT22;3264;42.862;25.098;2023-07-28T06:55:17;22.60;95.00
6462;DHT22;3264;42.862;25.098;2023-07-28T06:57:45;22.90;94.70
6462;DHT22;3264;42.862;25.098;2023-07-28T07:00:13;23.20;92.20
6462;DHT22;3264;42.862;25.098;2023-07-28T07:02:41;23.30;90.20
6462;DHT22;3264;42.862;25.098;2023-07-28T07:05:09;23.60;90.70
6462;DHT22;3264;42.862;25.098;2023-07-28T07:07:41;23.40;84.10
6462;DHT22;3264;42.862;25.098;2023-07-28T07:10:10;23.60;84.00
6462;DHT22;3264;42.862;25.098;2023-07-28T07:12:40;23.50;79.70
6462;DHT22;3264;42.862;25.098;2023-07-28T07:15:09;23.60;79.90
6462;DHT22;3264;42.862;25.098;2023-07-28T07:17:46;23.70;81.10
6462;DHT22;3264;42.862;25.098;2023-07-28T07:20:17;23.90;79.30
6462;DHT22;3264;42.862;25.098;2023-07-28T07:22:44;23.80;76.40
6462;DHT22;3264;42.862;25.098;2023-07-28T07:25:14;24.10;75.10
6462;DHT22;3264;42.862;25.098;2023-07-28T07:27:44;24.30;71.80
6462;DHT22;3264;42.862;25.098;2023-07-28T07:30:17;24.00;77.80
6462;DHT22;3264;42.862;25.098;2023-07-28T07:32:55;24.00;81.00
6462;DHT22;3264;42.862;25.098;2023-07-28T07:35:28;23.60;71.50
6462;DHT22;3264;42.862;25.098;2023-07-28T07:38:03;23.50;73.80
6462;DHT22;3264;42.862;25.098;2023-07-28T07:40:38;23.40;77.50
6462;DHT22;3264;42.862;25.098;2023-07-28T07:43:14;23.90;78.50
6462;DHT22;3264;42.862;25.098;2023-07-28T07:45:47;24.30;82.20
6462;DHT22;3264;42.862;25.098;2023-07-28T07:48:17;24.70;80.80
6462;DHT22;3264;42.862;25.098;2023-07-28T07:50:45;23.70;73.20
6462;DHT22;3264;42.862;25.098;2023-07-28T07:53:13;24.60;75.50
6462;DHT22;3264;42.862;25.098;2023-07-28T07:55:47;24.60;70.00
6462;DHT22;3264;42.862;25.098;2023-07-28T07:58:25;24.60;70.90
6462;DHT22;3264;42.862;25.098;2023-07-28T08:00:54;24.40;82.00
6462;DHT22;3264;42.862;25.098;2023-07-28T08:03:29;24.30;68.10
6462;DHT22;3264;42.862;25.098;2023-07-28T08:05:58;24.40;65.50
6462;DHT22;3264;42.862;25.098;2023-07-28T08:08:29;24.90;71.10
6462;DHT22;3264;42.862;25.098;2023-07-28T08:10:58;24.80;72.60
6462;DHT22;3264;42.862;25.098;2023-07-28T08:13:26;25.10;68.50
6462;DHT22;3264;42.862;25.098;2023-07-28T08:15:55;25.30;71.00
6462;DHT22;3264;42.862;25.098;2023-07-28T08:18:23;25.60;69.10
6462;DHT22;3264;42.862;25.098;2023-07-28T08:20:51;25.50;63.50
6462;DHT22;3264;42.862;25.098;2023-07-28T08:23:19;25.70;72.20
6462;DHT22;3264;42.862;25.098;2023-07-28T08:25:52;25.70;65.20
6462;DHT22;3264;42.862;25.098;2023-07-28T08:28:26;25.70;71.00
6462;DHT22;3264;42.862;25.098;2023-07-28T08:30:55;26.20;71.00
6462;DHT22;3264;42.862;25.098;2023-07-28T08:33:26;25.90;68.70
6462;DHT22;3264;42.862;25.098;2023-07-28T08:35:56;25.90;72.90
6462;DHT22;3264;42.862;25.098;2023-07-28T08:38:27;25.40;70.30
6462;DHT22;3264;42.862;25.098;2023-07-28T08:40:56;26.10;66.50
6462;DHT22;3264;42.862;25.098;2023-07-28T08:43:29;26.60;69.00
6462;DHT22;3264;42.862;25.098;2023-07-28T08:45:59;26.60;67.20
6462;DHT22;3264;42.862;25.098;2023-07-28T08:48:32;26.30;61.70
6462;DHT22;3264;42.862;25.098;2023-07-28T08:51:01;26.10;68.50
6462;DHT22;3264;42.862;25.098;2023-07-28T08:53:31;26.30;70.70
6462;DHT22;3264;42.862;25.098;2023-07-28T08:56:03;26.30;62.80
6462;DHT22;3264;42.862;25.098;2023-07-28T08:58:32;26.30;65.20
6462;DHT22;3264;42.862;25.098;2023-07-28T09:01:01;26.50;63.80
6462;DHT22;3264;42.862;25.098;2023-07-28T09:03:44;26.60;64.40
6462;DHT22;3264;42.862;25.098;2023-07-28T09:06:16;26.20;68.00
6462;DHT22;3264;42.862;25.098;2023-07-28T09:08:50;25.20;70.50
6462;DHT22;3264;42.862;25.098;2023-07-28T09:11:26;25.70;74.70
6462;DHT22;3264;42.862;25.098;2023-07-28T09:14:00;26.00;70.90
6462;DHT22;3264;42.862;25.098;2023-07-28T09:16:30;26.00;69.20
6462;DHT22;3264;42.862;25.098;2023-07-28T09:19:13;26.30;72.40
6462;DHT22;3264;42.862;25.098;2023-07-28T09:21:46;26.80;70.60
6462;DHT22;3264;42.862;25.098;2023-07-28T09:24:30;26.70;72.00
6462;DHT22;3264;42.862;25.098;2023-07-28T09:26:59;26.90;68.90
6462;DHT22;3264;42.862;25.098;2023-07-28T09:29:43;26.90;63.40
6462;DHT22;3264;42.862;25.098;2023-07-28T09:32:14;26.80;70.80
6462;DHT22;3264;42.862;25.098;2023-07-28T09:34:43;27.50;70.90
6462;DHT22;3264;42.862;25.098;2023-07-28T09:37:14;26.80;67.00
6462;DHT22;3264;42.862;25.098;2023-07-28T09:39:42;26.90;68.70
6462;DHT22;3264;42.862;25.098;2023-07-28T09:42:16;26.90;70.50
6462;DHT22;3264;42.862;25.098;2023-07-28T09:45:07;26.30;67.00
6462;DHT22;3264;42.862;25.098;2023-07-28T09:47:38;26.70;72.00
6462;DHT22;3264;42.862;25.098;2023-07-28T09:50:08;27.00;69.60
6462;DHT22;3264;42.862;25.098;2023-07-28T09:52:38;26.80;63.90
6462;DHT22;3264;42.862;25.098;2023-07-28T09:55:25;26.90;68.20
6462;DHT22;3264;42.862;25.098;2023-07-28T09:57:57;26.70;66.20
6462;DHT22;3264;42.862;25.098;2023-07-28T10:00:34;26.80;66.00
6462;DHT22;3264;42.862;25.098;2023-07-28T10:03:11;26.90;70.50
6462;DHT22;3264;42.862;25.098;2023-07-28T10:05:47;27.60;66.40
6462;DHT22;3264;42.862;25.098;2023-07-28T10:08:16;27.40;70.90
6462;DHT22;3264;42.862;25.098;2023-07-28T10:10:54;27.40;66.60
6462;DHT22;3264;42.862;25.098;2023-07-28T10:13:22;27.50;65.10
6462;DHT22;3264;42.862;25.098;2023-07-28T10:15:51;27.40;65.70
6462;DHT22;3264;42.862;25.098;2023-07-28T10:18:26;27.50;66.90
6462;DHT22;3264;42.862;25.098;2023-07-28T10:20:53;27.50;65.00
6462;DHT22;3264;42.862;25.098;2023-07-28T10:23:27;27.60;67.70
6462;DHT22;3264;42.862;25.098;2023-07-28T10:26:00;28.10;68.20
6462;DHT22;3264;42.862;25.098;2023-07-28T10:28:39;27.90;61.90
6462;DHT22;3264;42.862;25.098;2023-07-28T10:31:31;28.10;66.80
6462;DHT22;3264;42.862;25.098;2023-07-28T10:33:59;28.00;65.00
6462;DHT22;3264;42.862;25.098;2023-07-28T10:36:34;28.10;67.10
6462;DHT22;3264;42.862;25.098;2023-07-28T10:39:18;27.90;64.10
6462;DHT22;3264;42.862;25.098;2023-07-28T10:42:02;28.00;59.80
6462;DHT22;3264;42.862;25.098;2023-07-28T10:44:41;28.10;64.80
6462;DHT22;3264;42.862;25.098;2023-07-28T10:47:10;28.30;66.20
6462;DHT22;3264;42.862;25.098;2023-07-28T10:49:42;28.50;65.90
6462;DHT22;3264;42.862;25.098;2023-07-28T10:52:16;28.10;61.10
6462;DHT22;3264;42.862;25.098;2023-07-28T10:54:54;27.70;61.20
6462;DHT22;3264;42.862;25.098;2023-07-28T10:57:28;27.80;65.20
6462;DHT22;3264;42.862;25.098;2023-07-28T11:00:00;27.90;64.90
6462;DHT22;3264;42.862;25.098;2023-07-28T11:02:33;27.60;67.30
6462;DHT22;3264;42.862;25.098;2023-07-28T11:05:10;27.80;64.30
6462;DHT22;3264;42.862;25.098;2023-07-28T11:07:44;28.00;65.10
6462;DHT22;3264;42.862;25.098;2023-07-28T11:10:23;28.00;71.20
6462;DHT22;3264;42.862;25.098;2023-07-28T11:12:58;28.30;62.10
6462;DHT22;3264;42.862;25.098;2023-07-28T11:15:26;28.60;61.20
6462;DHT22;3264;42.862;25.098;2023-07-28T11:18:00;28.40;62.20
6462;DHT22;3264;42.862;25.098;2023-07-28T11:20:34;28.50;60.30
6462;DHT22;3264;42.862;25.098;2023-07-28T11:23:03;28.30;57.30
6462;DHT22;3264;42.862;25.098;2023-07-28T11:25:37;28.20;65.00
6462;DHT22;3264;42.862;25.098;2023-07-28T11:28:05;28.30;59.00
6462;DHT22;3264;42.862;25.098;2023-07-28T11:30:36;28.70;58.80
6462;DHT22;3264;42.862;25.098;2023-07-28T11:33:08;28.60;58.70
6462;DHT22;3264;42.862;25.098;2023-07-28T11:35:40;28.50;59.30
6462;DHT22;3264;42.862;25.098;2023-07-28T11:38:11;28.30;57.30
6462;DHT22;3264;42.862;25.098;2023-07-28T11:40:42;28.90;57.00
6462;DHT22;3264;42.862;25.098;2023-07-28T11:43:13;28.50;58.00
6462;DHT22;3264;42.862;25.098;2023-07-28T11:45:41;28.80;60.60
6462;DHT22;3264;42.862;25.098;2023-07-28T11:48:10;28.30;60.10
6462;DHT22;3264;42.862;25.098;2023-07-28T11:50:45;28.10;61.20
6462;DHT22;3264;42.862;25.098;2023-07-28T11:53:19;28.50;56.70
6462;DHT22;3264;42.862;25.098;2023-07-28T11:55:48;28.60;54.90
6462;DHT22;3264;42.862;25.098;2023-07-28T11:58:15;28.40;59.30
6462;DHT22;3264;42.862;25.098;2023-07-28T12:00:59;28.80;60.80
6462;DHT22;3264;42.862;25.098;2023-07-28T12:03:41;28.80;59.90
6462;DHT22;3264;42.862;25.098;2023-07-28T12:06:12;28.70;56.80
6462;DHT22;3264;42.862;25.098;2023-07-28T12:08:40;28.40;59.00
6462;DHT22;3264;42.862;25.098;2023-07-28T12:11:14;28.50;56.10
6462;DHT22;3264;42.862;25.098;2023-07-28T12:13:50;28.00;57.00
6462;DHT22;3264;42.862;25.098;2023-07-28T12:16:39;28.10;67.10
6462;DHT22;3264;42.862;25.098;2023-07-28T12:19:12;28.50;59.40
6462;DHT22;3264;42.862;25.098;2023-07-28T12:21:43;28.60;57.10
6462;DHT22;3264;42.862;25.098;2023-07-28T12:24:18;28.50;55.50
6462;DHT22;3264;42.862;25.098;2023-07-28T12:26:45;28.00;58.10
6462;DHT22;3264;42.862;25.098;2023-07-28T12:29:13;28.10;60.30
6462;DHT22;3264;42.862;25.098;2023-07-28T12:31:42;28.30;56.00
6462;DHT22;3264;42.862;25.098;2023-07-28T12:34:17;28.40;57.70
6462;DHT22;3264;42.862;25.098;2023-07-28T12:36:48;28.60;55.70
6462;DHT22;3264;42.862;25.098;2023-07-28T12:39:17;28.40;55.50
6462;DHT22;3264;42.862;25.098;2023-07-28T12:41:45;28.40;57.40
6462;DHT22;3264;42.862;25.098;2023-07-28T12:44:21;28.20;52.10
6462;DHT22;3264;42.862;25.098;2023-07-28T12:46:49;27.80;51.20
6462;DHT22;3264;42.862;25.098;2023-07-28T12:49:19;27.50;54.30
6462;DHT22;3264;42.862;25.098;2023-07-28T12:51:47;27.50;64.10
6462;DHT22;3264;42.862;25.098;2023-07-28T12:54:19;28.10;61.50
6462;DHT22;3264;42.862;25.098;2023-07-28T12:56:49;28.30;52.50
6462;DHT22;3264;42.862;25.098;2023-07-28T12:59:20;28.40;52.50
6462;DHT22;3264;42.862;25.098;2023-07-28T13:01:47;28.50;53.30
6462;DHT22;3264;42.862;25.098;2023-07-28T13:04:21;28.80;54.50
6462;DHT22;3264;42.862;25.098;2023-07-28T13:06:49;28.90;52.10
6462;DHT22;3264;42.862;25.098;2023-07-28T13:09:21;27.80;48.10
6462;DHT22;3264;42.862;25.098;2023-07-28T13:11:51;27.80;52.20
6462;DHT22;3264;42.862;25.098;2023-07-28T13:14:24;28.10;54.50
6462;DHT22;3264;42.862;25.098;2023-07-28T13:17:12;28.10;52.90
6462;DHT22;3264;42.862;25.098;2023-07-28T13:19:42;28.10;54.20
6462;DHT22;3264;42.862;25.098;2023-07-28T13:22:11;28.10;53.80
6462;DHT22;3264;42.862;25.098;2023-07-28T13:24:43;28.10;53.40
6462;DHT22;3264;42.862;25.098;2023-07-28T13:27:11;28.00;52.10
6462;DHT22;3264;42.862;25.098;2023-07-28T13:29:55;27.80;51.20
6462;DHT22;3264;42.862;25.098;2023-07-28T13:32:25;27.90;51.70
6462;DHT22;3264;42.862;25.098;2023-07-28T13:35:02;28.00;51.70
6462;DHT22;3264;42.862;25.098;2023-07-28T13:37:39;28.20;51.40
6462;DHT22;3264;42.862;25.098;2023-07-28T13:40:19;28.10;52.30
6462;DHT22;3264;42.862;25.098;2023-07-28T13:42:47;27.80;54.20
6462;DHT22;3264;42.862;25.098;2023-07-28T13:45:15;28.10;55.20
6462;DHT22;3264;42.862;25.098;2023-07-28T13:47:43;28.20;56.40
6462;DHT22;3264;42.862;25.098;2023-07-28T13:50:13;27.80;52.00
6462;DHT22;3264;42.862;25.098;2023-07-28T13:52:45;27.80;54.20
6462;DHT22;3264;42.862;25.098;2023-07-28T13:55:12;28.00;55.90
6462;DHT22;3264;42.862;25.098;2023-07-28T13:57:41;27.70;56.80
6462;DHT22;3264;42.862;25.098;2023-07-28T14:00:15;27.70;58.70
6462;DHT22;3264;42.862;25.098;2023-07-28T14:02:43;27.70;52.10
6462;DHT22;3264;42.862;25.098;2023-07-28T14:05:14;27.80;54.10
6462;DHT22;3264;42.862;25.098;2023-07-28T14:07:44;28.00;52.70
6462;DHT22;3264;42.862;25.098;2023-07-28T14:10:14;27.70;51.90
6462;DHT22;3264;42.862;25.098;2023-07-28T14:12:41;27.80;53.70
6462;DHT22;3264;42.862;25.098;2023-07-28T14:15:09;27.90;56.50
6462;DHT22;3264;42.862;25.098;2023-07-28T14:17:37;28.00;55.60
6462;DHT22;3264;42.862;25.098;2023-07-28T14:20:07;27.80;59.10
6462;DHT22;3264;42.862;25.098;2023-07-28T14:22:39;28.10;53.60
6462;DHT22;3264;42.862;25.098;2023-07-28T14:25:08;28.00;52.90
6462;DHT22;3264;42.862;25.098;2023-07-28T14:27:38;27.80;53.30
6462;DHT22;3264;42.862;25.098;2023-07-28T14:30:12;27.60;55.30
6462;DHT22;3264;42.862;25.098;2023-07-28T14:32:41;27.50;54.50
6462;DHT22;3264;42.862;25.098;2023-07-28T14:35:09;27.60;56.70
6462;DHT22;3264;42.862;25.098;2023-07-28T14:37:37;27.40;53.10
6462;DHT22;3264;42.862;25.098;2023-07-28T14:40:08;27.10;55.20
6462;DHT22;3264;42.862;25.098;2023-07-28T14:42:37;27.20;54.00
6462;DHT22;3264;42.862;25.098;2023-07-28T14:45:14;27.40;53.60
6462;DHT22;3264;42.862;25.098;2023-07-28T14:47:41;27.40;58.20
6462;DHT22;3264;42.862;25.098;2023-07-28T14:50:09;27.50;60.60
6462;DHT22;3264;42.862;25.098;2023-07-28T14:52:39;27.30;56.00
6462;DHT22;3264;42.862;25.098;2023-07-28T14:55:15;27.30;55.80
6462;DHT22;3264;42.862;25.098;2023-07-28T14:57:44;27.20;53.60
6462;DHT22;3264;42.862;25.098;2023-07-28T15:00:43;27.30;53.00
6462;DHT22;3264;42.862;25.098;2023-07-28T15:03:10;27.20;54.10
6462;DHT22;3264;42.862;25.098;2023-07-28T15:05:41;27.10;54.00
6462;DHT22;3264;42.862;25.098;2023-07-28T15:08:08;27.10;53.80
6462;DHT22;3264;42.862;25.098;2023-07-28T15:10:40;27.10;57.40
6462;DHT22;3264;42.862;25.098;2023-07-28T15:13:09;27.30;60.00
6462;DHT22;3264;42.862;25.098;2023-07-28T15:15:37;27.30;64.30
6462;DHT22;3264;42.862;25.098;2023-07-28T15:18:08;27.30;56.60
6462;DHT22;3264;42.862;25.098;2023-07-28T15:20:38;27.30;59.30
6462;DHT22;3264;42.862;25.098;2023-07-28T15:23:05;27.30;66.20
6462;DHT22;3264;42.862;25.098;2023-07-28T15:25:33;27.30;67.10
6462;DHT22;3264;42.862;25.098;2023-07-28T15:28:02;27.10;69.90
6462;DHT22;3264;42.862;25.098;2023-07-28T15:30:30;26.90;71.70
6462;DHT22;3264;42.862;25.098;2023-07-28T15:33:00;26.80;72.20
6462;DHT22;3264;42.862;25.098;2023-07-28T15:35:30;26.70;73.40
6462;DHT22;3264;42.862;25.098;2023-07-28T15:37:58;26.40;74.00
6462;DHT22;3264;42.862;25.098;2023-07-28T15:40:26;26.10;75.70
6462;DHT22;3264;42.862;25.098;2023-07-28T15:42:53;26.00;74.10
6462;DHT22;3264;42.862;25.098;2023-07-28T15:45:29;25.90;74.80
6462;DHT22;3264;42.862;25.098;2023-07-28T15:48:07;25.70;75.50
6462;DHT22;3264;42.862;25.098;2023-07-28T15:50:53;25.60;76.70
6462;DHT22;3264;42.862;25.098;2023-07-28T15:53:21;25.60;75.70
6462;DHT22;3264;42.862;25.098;2023-07-28T15:55:53;25.50;78.10
6462;DHT22;3264;42.862;25.098;2023-07-28T15:58:22;25.30;76.10
6462;DHT22;3264;42.862;25.098;2023-07-28T16:00:51;24.90;76.30
6462;DHT22;3264;42.862;25.098;2023-07-28T16:03:25;24.80;76.60
6462;DHT22;3264;42.862;25.098;2023-07-28T16:06:00;24.70;78.10
6462;DHT22;3264;42.862;25.098;2023-07-28T16:08:27;24.70;77.90
6462;DHT22;3264;42.862;25.098;2023-07-28T16:10:58;24.50;77.50
6462;DHT22;3264;42.862;25.098;2023-07-28T16:13:28;24.40;78.70